Carltonville Airport

Jump to: basic info | weather | comments

Related pages: nearby airports | nearby navaids | notams | map

Basic information (top)

Codes: FACR
Location: lon -26.366667, lat 27.346666, elev 5,000 ft / 1,524 m msl
Status: small_airport

Weather (top)

Current conditions for Potchefstroom Airport 23nm (43km) SW (rec'd 2013/07/12 07:00Z):

FAPS 120700Z AUTO 08002KT //// // ////// 11/// Q1032

Airport forecast for Lanseria Airport 40nm (75km) NE (rec'd 2014/04/16 00:00Z):

TAF FAGG 162200Z 1700/1724 03008KT 9999 FEW040 TX24/1712ZTN12/1705Z= TAF FALA 162200Z 1700/1724 VRB02KT 6000 BKN008 
      TEMPO 1702/1706 4000 BR BKN004 
      BECMG 1708/1710 31011KT 9999 SCT035 TX22/1712ZTN10/1704Z

Latest comments (top)

re: GERAASBESOEDELING - VLIEGTUIG - CARLETONVILLE: Jislaaik jy is 'n onsensitiewe doos. ... [read]

re: GERAASBESOEDELING - VLIEGTUIG - Naweke raas die Johannes: Johannesburg Skydiving Cemetry - JSC - [read]

GERAASBESOEDELING - VLIEGTUIG - CARLETONVILLE: Is die veld gesoneer vir 'n krematorium/ ... [read]

re: re: re: GERAASBESOEDELING - VLIEGTUIG - Naweke raas die : Geraasbesoedeling en Lugbesoedeling!! B ... [read]

re: re: GERAASBESOEDELING - VLIEGTUIG - Naweke raas die Joha: Tonto en nog dooies, wees gewaarsku, ... [read]

See all 7 comments for Carltonville Airport

More... (top)

See also NOTAMs and nearby airports and navaids, or visit the Carltonville Airport page at the main OurAirports website..